sensor_id;sensor_type;location;lat;lon;timestamp;P1;durP1;ratioP1;P2;durP2;ratioP2
12625;SDS011;6378;42.684;23.372;2022-08-21T00:02:17;12.98;;;9.45;;
12625;SDS011;6378;42.684;23.372;2022-08-21T00:04:44;11.57;;;9.27;;
12625;SDS011;6378;42.684;23.372;2022-08-21T00:07:12;12.48;;;9.63;;
12625;SDS011;6378;42.684;23.372;2022-08-21T00:09:38;10.27;;;8.73;;
12625;SDS011;6378;42.684;23.372;2022-08-21T00:12:04;12.68;;;9.05;;
12625;SDS011;6378;42.684;23.372;2022-08-21T00:14:30;11.70;;;9.38;;
12625;SDS011;6378;42.684;23.372;2022-08-21T00:16:57;11.35;;;8.40;;
12625;SDS011;6378;42.684;23.372;2022-08-21T00:19:23;10.52;;;7.10;;
12625;SDS011;6378;42.684;23.372;2022-08-21T00:21:50;10.13;;;7.13;;
12625;SDS011;6378;42.684;23.372;2022-08-21T00:24:17;11.48;;;7.80;;
12625;SDS011;6378;42.684;23.372;2022-08-21T00:26:42;9.95;;;7.85;;
12625;SDS011;6378;42.684;23.372;2022-08-21T00:29:08;11.70;;;8.43;;
12625;SDS011;6378;42.684;23.372;2022-08-21T00:31:34;11.65;;;8.52;;
12625;SDS011;6378;42.684;23.372;2022-08-21T00:34:00;16.23;;;9.70;;
12625;SDS011;6378;42.684;23.372;2022-08-21T00:36:26;17.35;;;10.55;;
12625;SDS011;6378;42.684;23.372;2022-08-21T00:38:51;18.08;;;11.35;;
12625;SDS011;6378;42.684;23.372;2022-08-21T00:41:17;16.33;;;12.18;;
12625;SDS011;6378;42.684;23.372;2022-08-21T00:43:42;17.92;;;13.20;;
12625;SDS011;6378;42.684;23.372;2022-08-21T00:46:08;15.85;;;12.38;;
12625;SDS011;6378;42.684;23.372;2022-08-21T00:48:33;20.35;;;12.70;;
12625;SDS011;6378;42.684;23.372;2022-08-21T00:51:10;16.92;;;12.38;;
12625;SDS011;6378;42.684;23.372;2022-08-21T00:53:47;19.38;;;12.73;;
12625;SDS011;6378;42.684;23.372;2022-08-21T00:56:17;16.05;;;12.10;;
12625;SDS011;6378;42.684;23.372;2022-08-21T00:58:44;19.33;;;12.50;;
12625;SDS011;6378;42.684;23.372;2022-08-21T01:01:10;15.10;;;11.48;;
12625;SDS011;6378;42.684;23.372;2022-08-21T01:03:37;15.98;;;12.30;;
12625;SDS011;6378;42.684;23.372;2022-08-21T01:06:03;17.58;;;12.45;;
12625;SDS011;6378;42.684;23.372;2022-08-21T01:08:30;18.98;;;12.60;;
12625;SDS011;6378;42.684;23.372;2022-08-21T01:10:57;18.55;;;12.43;;
12625;SDS011;6378;42.684;23.372;2022-08-21T01:13:25;18.30;;;12.30;;
12625;SDS011;6378;42.684;23.372;2022-08-21T01:15:53;19.17;;;13.48;;
12625;SDS011;6378;42.684;23.372;2022-08-21T01:18:20;18.33;;;12.55;;
12625;SDS011;6378;42.684;23.372;2022-08-21T01:23:50;19.05;;;12.95;;
12625;SDS011;6378;42.684;23.372;2022-08-21T01:26:19;17.85;;;11.93;;
12625;SDS011;6378;42.684;23.372;2022-08-21T01:29:00;17.83;;;13.27;;
12625;SDS011;6378;42.684;23.372;2022-08-21T01:31:32;19.58;;;13.70;;
12625;SDS011;6378;42.684;23.372;2022-08-21T01:33:58;18.27;;;12.85;;
12625;SDS011;6378;42.684;23.372;2022-08-21T01:36:24;19.17;;;13.25;;
12625;SDS011;6378;42.684;23.372;2022-08-21T01:38:50;18.38;;;14.15;;
12625;SDS011;6378;42.684;23.372;2022-08-21T01:41:16;19.42;;;14.38;;
12625;SDS011;6378;42.684;23.372;2022-08-21T01:43:42;19.05;;;13.93;;
12625;SDS011;6378;42.684;23.372;2022-08-21T01:46:08;23.95;;;15.95;;
12625;SDS011;6378;42.684;23.372;2022-08-21T01:48:35;20.33;;;13.93;;
12625;SDS011;6378;42.684;23.372;2022-08-21T01:51:01;21.70;;;14.70;;
12625;SDS011;6378;42.684;23.372;2022-08-21T01:53:27;22.92;;;15.20;;
12625;SDS011;6378;42.684;23.372;2022-08-21T01:55:52;23.63;;;16.15;;
12625;SDS011;6378;42.684;23.372;2022-08-21T01:58:18;21.92;;;14.68;;
12625;SDS011;6378;42.684;23.372;2022-08-21T02:00:44;26.45;;;15.20;;
12625;SDS011;6378;42.684;23.372;2022-08-21T02:03:09;22.95;;;14.95;;
12625;SDS011;6378;42.684;23.372;2022-08-21T02:05:35;21.50;;;14.85;;
12625;SDS011;6378;42.684;23.372;2022-08-21T02:08:00;24.38;;;17.48;;
12625;SDS011;6378;42.684;23.372;2022-08-21T02:10:28;22.38;;;15.88;;
12625;SDS011;6378;42.684;23.372;2022-08-21T02:12:56;25.58;;;16.80;;
12625;SDS011;6378;42.684;23.372;2022-08-21T02:15:22;23.25;;;15.60;;
12625;SDS011;6378;42.684;23.372;2022-08-21T02:17:50;21.70;;;16.05;;
12625;SDS011;6378;42.684;23.372;2022-08-21T02:20:20;31.88;;;21.70;;
12625;SDS011;6378;42.684;23.372;2022-08-21T02:22:50;28.35;;;19.50;;
12625;SDS011;6378;42.684;23.372;2022-08-21T02:25:17;27.73;;;19.27;;
12625;SDS011;6378;42.684;23.372;2022-08-21T02:27:44;30.52;;;19.67;;
12625;SDS011;6378;42.684;23.372;2022-08-21T02:30:18;30.00;;;21.50;;
12625;SDS011;6378;42.684;23.372;2022-08-21T02:32:46;32.63;;;20.65;;
12625;SDS011;6378;42.684;23.372;2022-08-21T02:35:12;36.92;;;23.60;;
12625;SDS011;6378;42.684;23.372;2022-08-21T02:37:51;33.28;;;20.48;;
12625;SDS011;6378;42.684;23.372;2022-08-21T02:40:20;35.42;;;23.88;;
12625;SDS011;6378;42.684;23.372;2022-08-21T02:42:47;33.03;;;22.05;;
12625;SDS011;6378;42.684;23.372;2022-08-21T02:45:13;37.47;;;23.55;;
12625;SDS011;6378;42.684;23.372;2022-08-21T02:47:40;34.22;;;21.70;;
12625;SDS011;6378;42.684;23.372;2022-08-21T02:50:12;29.40;;;19.52;;
12625;SDS011;6378;42.684;23.372;2022-08-21T02:52:37;29.10;;;20.75;;
12625;SDS011;6378;42.684;23.372;2022-08-21T02:55:03;35.67;;;20.98;;
12625;SDS011;6378;42.684;23.372;2022-08-21T02:57:29;31.52;;;18.10;;
12625;SDS011;6378;42.684;23.372;2022-08-21T02:59:57;30.52;;;18.63;;
12625;SDS011;6378;42.684;23.372;2022-08-21T03:02:23;25.98;;;16.95;;
12625;SDS011;6378;42.684;23.372;2022-08-21T03:04:48;28.55;;;18.08;;
12625;SDS011;6378;42.684;23.372;2022-08-21T03:07:14;21.60;;;14.50;;
12625;SDS011;6378;42.684;23.372;2022-08-21T03:09:40;21.05;;;13.52;;
12625;SDS011;6378;42.684;23.372;2022-08-21T03:12:05;23.23;;;15.70;;
12625;SDS011;6378;42.684;23.372;2022-08-21T03:14:31;24.60;;;16.35;;
12625;SDS011;6378;42.684;23.372;2022-08-21T03:16:56;23.67;;;14.07;;
12625;SDS011;6378;42.684;23.372;2022-08-21T03:19:22;24.60;;;14.85;;
12625;SDS011;6378;42.684;23.372;2022-08-21T03:21:47;24.58;;;15.13;;
12625;SDS011;6378;42.684;23.372;2022-08-21T03:24:13;24.15;;;15.65;;
12625;SDS011;6378;42.684;23.372;2022-08-21T03:26:38;25.58;;;15.98;;
12625;SDS011;6378;42.684;23.372;2022-08-21T03:29:03;25.98;;;16.65;;
12625;SDS011;6378;42.684;23.372;2022-08-21T03:31:30;24.83;;;14.75;;
12625;SDS011;6378;42.684;23.372;2022-08-21T03:33:57;25.20;;;17.23;;
12625;SDS011;6378;42.684;23.372;2022-08-21T03:36:22;29.08;;;18.95;;
12625;SDS011;6378;42.684;23.372;2022-08-21T03:38:49;36.42;;;24.42;;
12625;SDS011;6378;42.684;23.372;2022-08-21T03:41:14;24.65;;;15.93;;
12625;SDS011;6378;42.684;23.372;2022-08-21T03:43:40;28.10;;;19.42;;
12625;SDS011;6378;42.684;23.372;2022-08-21T03:46:05;24.75;;;15.13;;
12625;SDS011;6378;42.684;23.372;2022-08-21T03:48:31;22.50;;;15.02;;
12625;SDS011;6378;42.684;23.372;2022-08-21T03:50:59;22.15;;;13.95;;
12625;SDS011;6378;42.684;23.372;2022-08-21T03:53:24;16.92;;;13.13;;
12625;SDS011;6378;42.684;23.372;2022-08-21T03:55:51;19.42;;;12.68;;
12625;SDS011;6378;42.684;23.372;2022-08-21T03:58:18;16.52;;;12.38;;
12625;SDS011;6378;42.684;23.372;2022-08-21T04:00:49;18.63;;;11.30;;
12625;SDS011;6378;42.684;23.372;2022-08-21T04:03:17;19.27;;;11.50;;
12625;SDS011;6378;42.684;23.372;2022-08-21T04:05:42;13.68;;;10.45;;
12625;SDS011;6378;42.684;23.372;2022-08-21T04:08:10;17.50;;;11.55;;
12625;SDS011;6378;42.684;23.372;2022-08-21T04:10:36;14.70;;;11.02;;
12625;SDS011;6378;42.684;23.372;2022-08-21T04:13:03;18.77;;;11.02;;
12625;SDS011;6378;42.684;23.372;2022-08-21T04:15:29;17.77;;;11.52;;
12625;SDS011;6378;42.684;23.372;2022-08-21T04:17:55;15.55;;;11.07;;
12625;SDS011;6378;42.684;23.372;2022-08-21T04:20:21;17.15;;;10.75;;
12625;SDS011;6378;42.684;23.372;2022-08-21T04:22:47;17.02;;;12.05;;
12625;SDS011;6378;42.684;23.372;2022-08-21T04:25:13;17.13;;;11.80;;
12625;SDS011;6378;42.684;23.372;2022-08-21T04:27:40;14.80;;;11.13;;
12625;SDS011;6378;42.684;23.372;2022-08-21T04:30:06;18.10;;;11.50;;
12625;SDS011;6378;42.684;23.372;2022-08-21T04:32:34;16.25;;;10.90;;
12625;SDS011;6378;42.684;23.372;2022-08-21T04:35:00;16.83;;;11.25;;
12625;SDS011;6378;42.684;23.372;2022-08-21T04:37:29;17.58;;;11.35;;
12625;SDS011;6378;42.684;23.372;2022-08-21T04:39:55;15.43;;;10.85;;
12625;SDS011;6378;42.684;23.372;2022-08-21T04:42:24;16.17;;;12.23;;
12625;SDS011;6378;42.684;23.372;2022-08-21T04:44:51;17.45;;;12.30;;
12625;SDS011;6378;42.684;23.372;2022-08-21T04:47:16;17.17;;;12.82;;
12625;SDS011;6378;42.684;23.372;2022-08-21T04:49:43;18.58;;;12.98;;
12625;SDS011;6378;42.684;23.372;2022-08-21T04:52:08;22.23;;;16.55;;
12625;SDS011;6378;42.684;23.372;2022-08-21T04:54:35;21.13;;;12.45;;
12625;SDS011;6378;42.684;23.372;2022-08-21T04:57:02;19.00;;;13.45;;
12625;SDS011;6378;42.684;23.372;2022-08-21T04:59:40;20.90;;;14.20;;
12625;SDS011;6378;42.684;23.372;2022-08-21T05:02:10;20.40;;;13.43;;
12625;SDS011;6378;42.684;23.372;2022-08-21T05:04:37;16.98;;;13.73;;
12625;SDS011;6378;42.684;23.372;2022-08-21T05:07:09;16.05;;;11.75;;
12625;SDS011;6378;42.684;23.372;2022-08-21T05:09:37;16.17;;;12.20;;
12625;SDS011;6378;42.684;23.372;2022-08-21T05:12:03;14.00;;;10.40;;
12625;SDS011;6378;42.684;23.372;2022-08-21T05:14:29;14.63;;;12.25;;
12625;SDS011;6378;42.684;23.372;2022-08-21T05:16:55;18.77;;;13.38;;
12625;SDS011;6378;42.684;23.372;2022-08-21T05:19:21;12.73;;;9.52;;
12625;SDS011;6378;42.684;23.372;2022-08-21T05:21:46;21.00;;;14.98;;
12625;SDS011;6378;42.684;23.372;2022-08-21T05:24:13;13.65;;;11.25;;
12625;SDS011;6378;42.684;23.372;2022-08-21T05:26:39;14.10;;;11.70;;
12625;SDS011;6378;42.684;23.372;2022-08-21T05:29:05;14.13;;;11.70;;
12625;SDS011;6378;42.684;23.372;2022-08-21T05:31:31;14.73;;;9.98;;
12625;SDS011;6378;42.684;23.372;2022-08-21T05:33:56;13.40;;;11.43;;
12625;SDS011;6378;42.684;23.372;2022-08-21T05:36:22;14.00;;;11.73;;
12625;SDS011;6378;42.684;23.372;2022-08-21T05:38:47;29.88;;;23.80;;
12625;SDS011;6378;42.684;23.372;2022-08-21T05:41:13;13.02;;;10.63;;
12625;SDS011;6378;42.684;23.372;2022-08-21T05:43:38;12.57;;;10.00;;
12625;SDS011;6378;42.684;23.372;2022-08-21T05:46:04;14.38;;;12.50;;
12625;SDS011;6378;42.684;23.372;2022-08-21T05:48:31;16.25;;;11.73;;
12625;SDS011;6378;42.684;23.372;2022-08-21T05:50:57;14.30;;;11.80;;
12625;SDS011;6378;42.684;23.372;2022-08-21T05:53:28;14.10;;;11.23;;
12625;SDS011;6378;42.684;23.372;2022-08-21T05:55:54;12.73;;;10.90;;
12625;SDS011;6378;42.684;23.372;2022-08-21T05:58:20;16.05;;;12.75;;
12625;SDS011;6378;42.684;23.372;2022-08-21T06:00:48;14.00;;;10.65;;
12625;SDS011;6378;42.684;23.372;2022-08-21T06:03:16;13.98;;;12.27;;
12625;SDS011;6378;42.684;23.372;2022-08-21T06:05:44;13.93;;;11.43;;
12625;SDS011;6378;42.684;23.372;2022-08-21T06:08:10;17.48;;;12.15;;
12625;SDS011;6378;42.684;23.372;2022-08-21T06:10:36;15.65;;;12.90;;
12625;SDS011;6378;42.684;23.372;2022-08-21T06:13:02;17.55;;;14.40;;
12625;SDS011;6378;42.684;23.372;2022-08-21T06:15:28;18.77;;;15.32;;
12625;SDS011;6378;42.684;23.372;2022-08-21T06:17:54;17.48;;;14.55;;
12625;SDS011;6378;42.684;23.372;2022-08-21T06:20:19;13.80;;;11.57;;
12625;SDS011;6378;42.684;23.372;2022-08-21T06:22:45;14.25;;;12.45;;
12625;SDS011;6378;42.684;23.372;2022-08-21T06:25:11;19.00;;;14.25;;
12625;SDS011;6378;42.684;23.372;2022-08-21T06:27:36;15.05;;;12.00;;
12625;SDS011;6378;42.684;23.372;2022-08-21T06:30:03;16.33;;;11.82;;
12625;SDS011;6378;42.684;23.372;2022-08-21T06:32:30;14.52;;;12.95;;
12625;SDS011;6378;42.684;23.372;2022-08-21T06:34:56;16.48;;;11.32;;
12625;SDS011;6378;42.684;23.372;2022-08-21T06:37:21;15.40;;;11.38;;
12625;SDS011;6378;42.684;23.372;2022-08-21T06:39:47;13.23;;;11.20;;
12625;SDS011;6378;42.684;23.372;2022-08-21T06:42:16;11.88;;;10.68;;
12625;SDS011;6378;42.684;23.372;2022-08-21T06:44:42;12.18;;;10.45;;
12625;SDS011;6378;42.684;23.372;2022-08-21T06:47:09;12.40;;;10.57;;
12625;SDS011;6378;42.684;23.372;2022-08-21T06:49:34;12.35;;;10.23;;
12625;SDS011;6378;42.684;23.372;2022-08-21T06:52:00;13.13;;;10.20;;
12625;SDS011;6378;42.684;23.372;2022-08-21T06:54:26;14.02;;;10.80;;
12625;SDS011;6378;42.684;23.372;2022-08-21T06:56:52;12.73;;;10.52;;
12625;SDS011;6378;42.684;23.372;2022-08-21T06:59:17;13.07;;;9.68;;
12625;SDS011;6378;42.684;23.372;2022-08-21T07:01:43;12.55;;;8.95;;
12625;SDS011;6378;42.684;23.372;2022-08-21T07:04:09;11.88;;;9.57;;
12625;SDS011;6378;42.684;23.372;2022-08-21T07:06:35;13.10;;;9.05;;
12625;SDS011;6378;42.684;23.372;2022-08-21T07:09:00;12.82;;;9.43;;
12625;SDS011;6378;42.684;23.372;2022-08-21T07:11:27;12.52;;;9.45;;
12625;SDS011;6378;42.684;23.372;2022-08-21T07:13:52;15.93;;;9.20;;
12625;SDS011;6378;42.684;23.372;2022-08-21T07:16:20;11.80;;;9.77;;
12625;SDS011;6378;42.684;23.372;2022-08-21T07:18:46;14.60;;;9.05;;
12625;SDS011;6378;42.684;23.372;2022-08-21T07:21:12;10.27;;;8.30;;
12625;SDS011;6378;42.684;23.372;2022-08-21T07:23:41;10.50;;;7.20;;
12625;SDS011;6378;42.684;23.372;2022-08-21T07:26:09;12.80;;;9.45;;
12625;SDS011;6378;42.684;23.372;2022-08-21T07:28:34;11.25;;;8.20;;
12625;SDS011;6378;42.684;23.372;2022-08-21T07:31:00;11.75;;;8.18;;
12625;SDS011;6378;42.684;23.372;2022-08-21T07:33:27;10.35;;;7.45;;
12625;SDS011;6378;42.684;23.372;2022-08-21T07:35:54;11.23;;;7.43;;
12625;SDS011;6378;42.684;23.372;2022-08-21T07:38:20;10.35;;;8.70;;
12625;SDS011;6378;42.684;23.372;2022-08-21T07:40:46;13.98;;;9.73;;
12625;SDS011;6378;42.684;23.372;2022-08-21T07:43:13;11.45;;;7.68;;
12625;SDS011;6378;42.684;23.372;2022-08-21T07:45:41;11.88;;;8.00;;
12625;SDS011;6378;42.684;23.372;2022-08-21T07:48:07;10.80;;;7.20;;
12625;SDS011;6378;42.684;23.372;2022-08-21T07:50:32;11.60;;;8.32;;
12625;SDS011;6378;42.684;23.372;2022-08-21T07:52:58;9.63;;;7.70;;
12625;SDS011;6378;42.684;23.372;2022-08-21T07:55:24;9.50;;;7.55;;
12625;SDS011;6378;42.684;23.372;2022-08-21T07:57:50;10.50;;;7.13;;
12625;SDS011;6378;42.684;23.372;2022-08-21T08:00:18;10.50;;;7.45;;
12625;SDS011;6378;42.684;23.372;2022-08-21T08:02:46;14.20;;;8.13;;
12625;SDS011;6378;42.684;23.372;2022-08-21T08:05:15;13.57;;;8.35;;
12625;SDS011;6378;42.684;23.372;2022-08-21T08:07:42;13.18;;;8.38;;
12625;SDS011;6378;42.684;23.372;2022-08-21T08:10:07;10.48;;;8.10;;
12625;SDS011;6378;42.684;23.372;2022-08-21T08:12:34;11.88;;;8.13;;
12625;SDS011;6378;42.684;23.372;2022-08-21T08:15:01;10.95;;;7.68;;
12625;SDS011;6378;42.684;23.372;2022-08-21T08:17:27;10.68;;;8.05;;
12625;SDS011;6378;42.684;23.372;2022-08-21T08:19:53;14.93;;;10.80;;
12625;SDS011;6378;42.684;23.372;2022-08-21T08:22:19;13.65;;;10.48;;
12625;SDS011;6378;42.684;23.372;2022-08-21T08:24:48;14.68;;;9.90;;
12625;SDS011;6378;42.684;23.372;2022-08-21T08:27:15;13.75;;;9.10;;
12625;SDS011;6378;42.684;23.372;2022-08-21T08:29:41;11.95;;;8.73;;
12625;SDS011;6378;42.684;23.372;2022-08-21T08:32:06;12.82;;;8.60;;
12625;SDS011;6378;42.684;23.372;2022-08-21T08:34:33;12.88;;;8.85;;
12625;SDS011;6378;42.684;23.372;2022-08-21T08:36:59;11.23;;;8.43;;
12625;SDS011;6378;42.684;23.372;2022-08-21T08:39:24;11.98;;;8.20;;
12625;SDS011;6378;42.684;23.372;2022-08-21T08:41:52;12.35;;;10.07;;
12625;SDS011;6378;42.684;23.372;2022-08-21T08:44:24;14.18;;;12.00;;
12625;SDS011;6378;42.684;23.372;2022-08-21T08:46:51;13.02;;;11.25;;
12625;SDS011;6378;42.684;23.372;2022-08-21T08:49:19;15.10;;;10.73;;
12625;SDS011;6378;42.684;23.372;2022-08-21T08:51:57;17.88;;;11.98;;
12625;SDS011;6378;42.684;23.372;2022-08-21T08:54:37;14.30;;;11.88;;
12625;SDS011;6378;42.684;23.372;2022-08-21T08:57:09;12.23;;;10.23;;
12625;SDS011;6378;42.684;23.372;2022-08-21T08:59:44;13.00;;;10.02;;
12625;SDS011;6378;42.684;23.372;2022-08-21T09:02:13;15.70;;;11.98;;
12625;SDS011;6378;42.684;23.372;2022-08-21T09:04:41;13.80;;;9.57;;
12625;SDS011;6378;42.684;23.372;2022-08-21T09:26:17;13.50;;;8.77;;
12625;SDS011;6378;42.684;23.372;2022-08-21T09:28:51;10.85;;;7.75;;
12625;SDS011;6378;42.684;23.372;2022-08-21T09:31:30;10.05;;;7.55;;
12625;SDS011;6378;42.684;23.372;2022-08-21T09:34:02;13.73;;;8.88;;
12625;SDS011;6378;42.684;23.372;2022-08-21T09:36:42;12.05;;;8.05;;
12625;SDS011;6378;42.684;23.372;2022-08-21T09:39:10;10.63;;;8.18;;
12625;SDS011;6378;42.684;23.372;2022-08-21T09:41:38;9.57;;;7.85;;
12625;SDS011;6378;42.684;23.372;2022-08-21T09:44:06;9.55;;;8.23;;
12625;SDS011;6378;42.684;23.372;2022-08-21T09:46:32;11.70;;;8.02;;
12625;SDS011;6378;42.684;23.372;2022-08-21T09:49:00;12.38;;;8.80;;
12625;SDS011;6378;42.684;23.372;2022-08-21T09:53:56;11.50;;;7.78;;
12625;SDS011;6378;42.684;23.372;2022-08-21T09:56:50;10.98;;;8.10;;
12625;SDS011;6378;42.684;23.372;2022-08-21T09:59:38;9.98;;;7.47;;
12625;SDS011;6378;42.684;23.372;2022-08-21T10:04:53;11.70;;;7.38;;
12625;SDS011;6378;42.684;23.372;2022-08-21T10:07:27;11.05;;;7.85;;
12625;SDS011;6378;42.684;23.372;2022-08-21T10:12:36;10.10;;;8.40;;
12625;SDS011;6378;42.684;23.372;2022-08-21T10:15:17;11.20;;;8.63;;
12625;SDS011;6378;42.684;23.372;2022-08-21T10:20:46;9.45;;;7.47;;
12625;SDS011;6378;42.684;23.372;2022-08-21T10:28:51;9.20;;;7.90;;
12625;SDS011;6378;42.684;23.372;2022-08-21T10:48:06;11.32;;;8.05;;
12625;SDS011;6378;42.684;23.372;2022-08-21T10:50:39;10.18;;;7.90;;
12625;SDS011;6378;42.684;23.372;2022-08-21T11:06:43;11.85;;;8.80;;
12625;SDS011;6378;42.684;23.372;2022-08-21T11:09:14;12.23;;;8.70;;
12625;SDS011;6378;42.684;23.372;2022-08-21T11:11:47;8.52;;;7.70;;
12625;SDS011;6378;42.684;23.372;2022-08-21T11:17:30;11.90;;;8.20;;
12625;SDS011;6378;42.684;23.372;2022-08-21T11:20:23;9.40;;;7.30;;
12625;SDS011;6378;42.684;23.372;2022-08-21T11:23:05;7.80;;;6.50;;
12625;SDS011;6378;42.684;23.372;2022-08-21T11:25:40;11.85;;;6.32;;
12625;SDS011;6378;42.684;23.372;2022-08-21T11:28:22;8.68;;;6.45;;
12625;SDS011;6378;42.684;23.372;2022-08-21T11:31:05;10.88;;;6.97;;
12625;SDS011;6378;42.684;23.372;2022-08-21T11:52:43;10.85;;;7.00;;
12625;SDS011;6378;42.684;23.372;2022-08-21T11:55:15;9.10;;;6.68;;
12625;SDS011;6378;42.684;23.372;2022-08-21T12:01:08;10.20;;;7.50;;
12625;SDS011;6378;42.684;23.372;2022-08-21T12:03:37;13.85;;;7.85;;
12625;SDS011;6378;42.684;23.372;2022-08-21T12:06:09;8.85;;;7.30;;
12625;SDS011;6378;42.684;23.372;2022-08-21T12:08:41;10.43;;;8.27;;
12625;SDS011;6378;42.684;23.372;2022-08-21T12:11:22;11.88;;;8.82;;
12625;SDS011;6378;42.684;23.372;2022-08-21T12:14:00;10.10;;;8.13;;
12625;SDS011;6378;42.684;23.372;2022-08-21T12:16:46;10.38;;;7.70;;
12625;SDS011;6378;42.684;23.372;2022-08-21T12:21:52;8.00;;;6.90;;
12625;SDS011;6378;42.684;23.372;2022-08-21T12:24:20;11.38;;;7.90;;
12625;SDS011;6378;42.684;23.372;2022-08-21T12:26:54;9.05;;;7.65;;
12625;SDS011;6378;42.684;23.372;2022-08-21T12:31:59;8.20;;;7.00;;
12625;SDS011;6378;42.684;23.372;2022-08-21T12:35:01;12.05;;;7.95;;
12625;SDS011;6378;42.684;23.372;2022-08-21T12:37:38;9.93;;;7.20;;
12625;SDS011;6378;42.684;23.372;2022-08-21T12:40:17;9.32;;;7.03;;
12625;SDS011;6378;42.684;23.372;2022-08-21T12:42:49;11.63;;;7.30;;
12625;SDS011;6378;42.684;23.372;2022-08-21T12:45:23;9.95;;;6.95;;
12625;SDS011;6378;42.684;23.372;2022-08-21T12:48:00;11.88;;;7.70;;
12625;SDS011;6378;42.684;23.372;2022-08-21T12:50:36;8.95;;;7.63;;
12625;SDS011;6378;42.684;23.372;2022-08-21T12:53:07;8.45;;;7.05;;
12625;SDS011;6378;42.684;23.372;2022-08-21T12:55:40;9.25;;;6.85;;
12625;SDS011;6378;42.684;23.372;2022-08-21T12:58:16;10.20;;;7.47;;
12625;SDS011;6378;42.684;23.372;2022-08-21T13:00:47;10.07;;;7.38;;
12625;SDS011;6378;42.684;23.372;2022-08-21T13:03:15;9.20;;;6.95;;
12625;SDS011;6378;42.684;23.372;2022-08-21T13:05:41;12.02;;;7.53;;
12625;SDS011;6378;42.684;23.372;2022-08-21T13:08:07;10.20;;;6.72;;
12625;SDS011;6378;42.684;23.372;2022-08-21T13:10:35;8.60;;;7.07;;
12625;SDS011;6378;42.684;23.372;2022-08-21T13:13:05;9.32;;;6.90;;
12625;SDS011;6378;42.684;23.372;2022-08-21T13:15:35;10.60;;;7.18;;
12625;SDS011;6378;42.684;23.372;2022-08-21T13:18:04;9.55;;;6.70;;
12625;SDS011;6378;42.684;23.372;2022-08-21T13:23:00;17.08;;;12.13;;
12625;SDS011;6378;42.684;23.372;2022-08-21T13:25:28;10.93;;;6.90;;
12625;SDS011;6378;42.684;23.372;2022-08-21T13:28:03;10.30;;;7.22;;
12625;SDS011;6378;42.684;23.372;2022-08-21T13:30:34;9.00;;;6.60;;
12625;SDS011;6378;42.684;23.372;2022-08-21T13:33:00;10.30;;;6.40;;
12625;SDS011;6378;42.684;23.372;2022-08-21T13:35:31;8.73;;;6.47;;
12625;SDS011;6378;42.684;23.372;2022-08-21T13:38:01;8.60;;;6.35;;
12625;SDS011;6378;42.684;23.372;2022-08-21T13:40:29;8.20;;;5.95;;
12625;SDS011;6378;42.684;23.372;2022-08-21T13:42:57;8.85;;;6.40;;
12625;SDS011;6378;42.684;23.372;2022-08-21T13:45:27;8.32;;;6.32;;
12625;SDS011;6378;42.684;23.372;2022-08-21T13:47:56;9.27;;;6.57;;
12625;SDS011;6378;42.684;23.372;2022-08-21T13:50:23;9.27;;;6.90;;
12625;SDS011;6378;42.684;23.372;2022-08-21T13:53:01;8.43;;;6.65;;
12625;SDS011;6378;42.684;23.372;2022-08-21T13:55:39;9.60;;;6.07;;
12625;SDS011;6378;42.684;23.372;2022-08-21T13:58:07;8.75;;;7.13;;
12625;SDS011;6378;42.684;23.372;2022-08-21T14:00:34;8.40;;;6.15;;
12625;SDS011;6378;42.684;23.372;2022-08-21T14:03:08;9.48;;;6.00;;
12625;SDS011;6378;42.684;23.372;2022-08-21T14:05:43;13.23;;;7.18;;
12625;SDS011;6378;42.684;23.372;2022-08-21T14:08:13;9.02;;;6.40;;
12625;SDS011;6378;42.684;23.372;2022-08-21T14:10:42;8.57;;;6.47;;
12625;SDS011;6378;42.684;23.372;2022-08-21T14:13:24;10.20;;;7.18;;
12625;SDS011;6378;42.684;23.372;2022-08-21T14:15:58;10.57;;;7.50;;
12625;SDS011;6378;42.684;23.372;2022-08-21T14:18:25;10.85;;;7.45;;
12625;SDS011;6378;42.684;23.372;2022-08-21T14:20:51;9.50;;;7.07;;
12625;SDS011;6378;42.684;23.372;2022-08-21T14:23:28;10.32;;;7.97;;
12625;SDS011;6378;42.684;23.372;2022-08-21T14:25:54;9.98;;;7.30;;
12625;SDS011;6378;42.684;23.372;2022-08-21T14:28:26;11.70;;;7.90;;
12625;SDS011;6378;42.684;23.372;2022-08-21T14:30:54;10.57;;;7.38;;
12625;SDS011;6378;42.684;23.372;2022-08-21T14:35:49;9.93;;;7.60;;
12625;SDS011;6378;42.684;23.372;2022-08-21T14:38:15;10.57;;;7.15;;
12625;SDS011;6378;42.684;23.372;2022-08-21T14:40:50;8.95;;;6.68;;
12625;SDS011;6378;42.684;23.372;2022-08-21T14:43:24;13.30;;;6.90;;
12625;SDS011;6378;42.684;23.372;2022-08-21T14:45:51;8.85;;;6.57;;
12625;SDS011;6378;42.684;23.372;2022-08-21T14:48:16;10.98;;;6.82;;
12625;SDS011;6378;42.684;23.372;2022-08-21T14:50:42;8.48;;;6.55;;
12625;SDS011;6378;42.684;23.372;2022-08-21T14:53:08;10.07;;;6.63;;
12625;SDS011;6378;42.684;23.372;2022-08-21T14:55:33;9.85;;;7.05;;
12625;SDS011;6378;42.684;23.372;2022-08-21T14:58:19;9.95;;;6.57;;
12625;SDS011;6378;42.684;23.372;2022-08-21T15:00:45;9.85;;;7.55;;
12625;SDS011;6378;42.684;23.372;2022-08-21T15:03:11;9.77;;;6.93;;
12625;SDS011;6378;42.684;23.372;2022-08-21T15:05:36;9.80;;;7.22;;
12625;SDS011;6378;42.684;23.372;2022-08-21T15:08:02;8.40;;;7.20;;
12625;SDS011;6378;42.684;23.372;2022-08-21T15:10:28;9.27;;;7.40;;
12625;SDS011;6378;42.684;23.372;2022-08-21T15:12:56;10.80;;;7.38;;
12625;SDS011;6378;42.684;23.372;2022-08-21T15:15:22;8.80;;;6.95;;
12625;SDS011;6378;42.684;23.372;2022-08-21T15:17:47;9.07;;;6.88;;
12625;SDS011;6378;42.684;23.372;2022-08-21T15:20:12;10.90;;;7.82;;
12625;SDS011;6378;42.684;23.372;2022-08-21T15:22:38;9.23;;;7.68;;
12625;SDS011;6378;42.684;23.372;2022-08-21T15:25:04;10.82;;;7.53;;
12625;SDS011;6378;42.684;23.372;2022-08-21T15:27:29;9.32;;;7.78;;
12625;SDS011;6378;42.684;23.372;2022-08-21T15:29:56;9.38;;;7.55;;
12625;SDS011;6378;42.684;23.372;2022-08-21T15:32:22;10.07;;;7.40;;
12625;SDS011;6378;42.684;23.372;2022-08-21T15:34:51;10.43;;;7.65;;
12625;SDS011;6378;42.684;23.372;2022-08-21T15:37:17;12.38;;;8.50;;
12625;SDS011;6378;42.684;23.372;2022-08-21T15:39:43;10.02;;;7.93;;
12625;SDS011;6378;42.684;23.372;2022-08-21T15:42:09;13.15;;;8.27;;
12625;SDS011;6378;42.684;23.372;2022-08-21T15:44:36;9.38;;;8.40;;
12625;SDS011;6378;42.684;23.372;2022-08-21T15:47:11;8.52;;;7.68;;
12625;SDS011;6378;42.684;23.372;2022-08-21T15:49:39;13.85;;;7.80;;
12625;SDS011;6378;42.684;23.372;2022-08-21T15:52:07;9.45;;;8.13;;
12625;SDS011;6378;42.684;23.372;2022-08-21T15:54:33;9.95;;;7.78;;
12625;SDS011;6378;42.684;23.372;2022-08-21T15:56:59;13.38;;;8.05;;
12625;SDS011;6378;42.684;23.372;2022-08-21T15:59:25;13.10;;;8.30;;
12625;SDS011;6378;42.684;23.372;2022-08-21T16:01:51;9.88;;;8.00;;
12625;SDS011;6378;42.684;23.372;2022-08-21T16:04:26;11.48;;;8.05;;
12625;SDS011;6378;42.684;23.372;2022-08-21T16:06:52;9.15;;;8.05;;
12625;SDS011;6378;42.684;23.372;2022-08-21T16:09:18;12.88;;;8.13;;
12625;SDS011;6378;42.684;23.372;2022-08-21T16:11:44;13.60;;;8.68;;
12625;SDS011;6378;42.684;23.372;2022-08-21T16:14:11;10.13;;;7.95;;
12625;SDS011;6378;42.684;23.372;2022-08-21T16:16:38;9.77;;;8.45;;
12625;SDS011;6378;42.684;23.372;2022-08-21T16:19:04;11.23;;;8.63;;
12625;SDS011;6378;42.684;23.372;2022-08-21T16:21:49;9.38;;;8.05;;
12625;SDS011;6378;42.684;23.372;2022-08-21T16:24:15;10.10;;;7.95;;